Stewarts Point, California
Current Conditions -  °F | °C
As of 11:56 AM on Wednesday 26 Nov 2014 (Local Time) from KUKI Reporting Station
Clear Clear  
Wind Chill: 60°   Ceiling: Unl
Heat Index: 60°   Visibility: 10mi
Dew Point: 44°   Wind: 0mph
Humidity: 55%   Direction: NA
Pressure: 30.27"   Gusts: NA
Location:  38.7°N, 123.43°W
Report Text: KUKI 261956Z AUTO 00000KT 10SM CLR 16/07 A3027 RMK AO2 SLP247 T01560067
Loading
Personal Weather Stations






























Interactive Weather Map New forecast layout! Learn more

10-Day Weather Forecast

Advertisements
Track Severe Weather on mobile